sensor_id;sensor_type;location;lat;lon;timestamp;temperature;humidity
40059;SHT31;25763;49.972;8.568;2024-03-06T00:01:57;6.57;82.67
40059;SHT31;25763;49.972;8.568;2024-03-06T00:04:43;6.55;82.67
40059;SHT31;25763;49.972;8.568;2024-03-06T00:07:28;6.52;82.67
40059;SHT31;25763;49.972;8.568;2024-03-06T00:10:14;6.47;82.62
40059;SHT31;25763;49.972;8.568;2024-03-06T00:13:00;6.44;82.56
40059;SHT31;25763;49.972;8.568;2024-03-06T00:15:45;6.37;82.50
40059;SHT31;25763;49.972;8.568;2024-03-06T00:18:31;6.33;82.39
40059;SHT31;25763;49.972;8.568;2024-03-06T00:21:17;6.24;82.26
40059;SHT31;25763;49.972;8.568;2024-03-06T00:24:03;6.03;82.55
40059;SHT31;25763;49.972;8.568;2024-03-06T00:26:52;5.85;82.57
40059;SHT31;25763;49.972;8.568;2024-03-06T00:29:38;5.67;83.12
40059;SHT31;25763;49.972;8.568;2024-03-06T00:32:23;5.51;83.48
40059;SHT31;25763;49.972;8.568;2024-03-06T00:35:09;5.42;84.17
40059;SHT31;25763;49.972;8.568;2024-03-06T00:37:54;5.32;84.29
40059;SHT31;25763;49.972;8.568;2024-03-06T00:40:40;5.35;84.58
40059;SHT31;25763;49.972;8.568;2024-03-06T00:43:26;5.44;84.46
40059;SHT31;25763;49.972;8.568;2024-03-06T00:46:11;5.54;84.15
40059;SHT31;25763;49.972;8.568;2024-03-06T00:48:57;5.40;84.37
40059;SHT31;25763;49.972;8.568;2024-03-06T00:51:43;5.39;84.69
40059;SHT31;25763;49.972;8.568;2024-03-06T00:54:28;5.32;84.70
40059;SHT31;25763;49.972;8.568;2024-03-06T00:57:14;5.28;84.58
40059;SHT31;25763;49.972;8.568;2024-03-06T00:59:59;5.08;85.12
40059;SHT31;25763;49.972;8.568;2024-03-06T01:02:45;4.88;85.56
40059;SHT31;25763;49.972;8.568;2024-03-06T01:05:31;4.70;85.80
40059;SHT31;25763;49.972;8.568;2024-03-06T01:08:16;4.63;85.87
40059;SHT31;25763;49.972;8.568;2024-03-06T01:11:03;4.55;86.01
40059;SHT31;25763;49.972;8.568;2024-03-06T01:13:49;4.59;86.03
40059;SHT31;25763;49.972;8.568;2024-03-06T01:16:35;4.51;86.16
40059;SHT31;25763;49.972;8.568;2024-03-06T01:19:21;4.49;86.30
40059;SHT31;25763;49.972;8.568;2024-03-06T01:22:06;4.42;86.51
40059;SHT31;25763;49.972;8.568;2024-03-06T01:24:53;4.39;86.96
40059;SHT31;25763;49.972;8.568;2024-03-06T01:27:39;4.28;87.28
40059;SHT31;25763;49.972;8.568;2024-03-06T01:30:24;4.24;87.32
40059;SHT31;25763;49.972;8.568;2024-03-06T01:33:10;4.11;87.30
40059;SHT31;25763;49.972;8.568;2024-03-06T01:35:55;4.16;87.43
40059;SHT31;25763;49.972;8.568;2024-03-06T01:38:41;4.29;87.18
40059;SHT31;25763;49.972;8.568;2024-03-06T01:41:27;4.44;86.91
40059;SHT31;25763;49.972;8.568;2024-03-06T01:44:14;4.58;86.75
40059;SHT31;25763;49.972;8.568;2024-03-06T01:47:00;4.38;86.41
40059;SHT31;25763;49.972;8.568;2024-03-06T01:49:46;4.28;86.74
40059;SHT31;25763;49.972;8.568;2024-03-06T01:52:31;4.24;87.02
40059;SHT31;25763;49.972;8.568;2024-03-06T01:55:18;4.04;87.11
40059;SHT31;25763;49.972;8.568;2024-03-06T01:58:04;3.97;87.23
40059;SHT31;25763;49.972;8.568;2024-03-06T02:00:52;3.99;87.34
40059;SHT31;25763;49.972;8.568;2024-03-06T02:03:38;4.03;87.45
40059;SHT31;25763;49.972;8.568;2024-03-06T02:06:23;3.99;87.42
40059;SHT31;25763;49.972;8.568;2024-03-06T02:09:09;3.90;87.57
40059;SHT31;25763;49.972;8.568;2024-03-06T02:11:55;4.06;87.52
40059;SHT31;25763;49.972;8.568;2024-03-06T02:14:40;4.18;87.22
40059;SHT31;25763;49.972;8.568;2024-03-06T02:17:26;4.29;87.01
40059;SHT31;25763;49.972;8.568;2024-03-06T02:20:14;4.39;86.79
40059;SHT31;25763;49.972;8.568;2024-03-06T02:23:01;4.45;86.54
40059;SHT31;25763;49.972;8.568;2024-03-06T02:25:47;4.49;86.30
40059;SHT31;25763;49.972;8.568;2024-03-06T02:28:32;4.51;86.12
40059;SHT31;25763;49.972;8.568;2024-03-06T02:31:21;4.56;85.84
40059;SHT31;25763;49.972;8.568;2024-03-06T02:34:06;4.56;85.65
40059;SHT31;25763;49.972;8.568;2024-03-06T02:36:52;4.53;85.50
40059;SHT31;25763;49.972;8.568;2024-03-06T02:39:38;4.52;85.27
40059;SHT31;25763;49.972;8.568;2024-03-06T02:42:23;4.46;85.18
40059;SHT31;25763;49.972;8.568;2024-03-06T02:45:09;4.46;85.09
40059;SHT31;25763;49.972;8.568;2024-03-06T02:47:55;4.45;84.99
40059;SHT31;25763;49.972;8.568;2024-03-06T02:50:40;4.45;84.84
40059;SHT31;25763;49.972;8.568;2024-03-06T02:53:26;4.44;84.73
40059;SHT31;25763;49.972;8.568;2024-03-06T02:56:19;4.44;84.59
40059;SHT31;25763;49.972;8.568;2024-03-06T02:59:05;4.39;84.39
40059;SHT31;25763;49.972;8.568;2024-03-06T03:01:50;4.35;84.19
40059;SHT31;25763;49.972;8.568;2024-03-06T03:04:36;4.00;84.07
40059;SHT31;25763;49.972;8.568;2024-03-06T03:07:21;3.69;83.95
40059;SHT31;25763;49.972;8.568;2024-03-06T03:10:09;3.57;84.19
40059;SHT31;25763;49.972;8.568;2024-03-06T03:12:55;3.47;84.25
40059;SHT31;25763;49.972;8.568;2024-03-06T03:15:41;3.55;84.22
40059;SHT31;25763;49.972;8.568;2024-03-06T03:18:27;3.64;84.19
40059;SHT31;25763;49.972;8.568;2024-03-06T03:21:13;3.55;84.09
40059;SHT31;25763;49.972;8.568;2024-03-06T03:23:58;3.51;84.33
40059;SHT31;25763;49.972;8.568;2024-03-06T03:26:44;3.57;84.27
40059;SHT31;25763;49.972;8.568;2024-03-06T03:29:29;3.65;84.27
40059;SHT31;25763;49.972;8.568;2024-03-06T03:32:15;3.68;84.34
40059;SHT31;25763;49.972;8.568;2024-03-06T03:35:02;3.74;84.28
40059;SHT31;25763;49.972;8.568;2024-03-06T03:37:48;3.79;84.26
40059;SHT31;25763;49.972;8.568;2024-03-06T03:40:37;3.72;84.14
40059;SHT31;25763;49.972;8.568;2024-03-06T03:43:23;3.81;84.11
40059;SHT31;25763;49.972;8.568;2024-03-06T03:46:09;3.48;84.61
40059;SHT31;25763;49.972;8.568;2024-03-06T03:48:55;3.10;85.32
40059;SHT31;25763;49.972;8.568;2024-03-06T03:51:40;2.78;85.74
40059;SHT31;25763;49.972;8.568;2024-03-06T03:54:26;2.47;86.40
40059;SHT31;25763;49.972;8.568;2024-03-06T03:57:12;2.52;86.80
40059;SHT31;25763;49.972;8.568;2024-03-06T03:59:59;2.54;86.71
40059;SHT31;25763;49.972;8.568;2024-03-06T04:02:45;2.56;86.87
40059;SHT31;25763;49.972;8.568;2024-03-06T04:05:30;2.72;86.92
40059;SHT31;25763;49.972;8.568;2024-03-06T04:08:17;2.63;86.80
40059;SHT31;25763;49.972;8.568;2024-03-06T04:11:03;2.58;87.22
40059;SHT31;25763;49.972;8.568;2024-03-06T04:13:49;2.45;87.36
40059;SHT31;25763;49.972;8.568;2024-03-06T04:16:34;2.35;87.63
40059;SHT31;25763;49.972;8.568;2024-03-06T04:19:20;2.26;87.83
40059;SHT31;25763;49.972;8.568;2024-03-06T04:22:06;2.32;87.91
40059;SHT31;25763;49.972;8.568;2024-03-06T04:24:51;2.43;87.89
40059;SHT31;25763;49.972;8.568;2024-03-06T04:27:37;2.54;87.76
40059;SHT31;25763;49.972;8.568;2024-03-06T04:30:22;2.45;87.79
40059;SHT31;25763;49.972;8.568;2024-03-06T04:33:08;2.46;87.86
40059;SHT31;25763;49.972;8.568;2024-03-06T04:35:54;2.53;87.98
40059;SHT31;25763;49.972;8.568;2024-03-06T04:38:39;2.68;87.77
40059;SHT31;25763;49.972;8.568;2024-03-06T04:41:25;2.63;87.50
40059;SHT31;25763;49.972;8.568;2024-03-06T04:44:11;2.65;87.57
40059;SHT31;25763;49.972;8.568;2024-03-06T04:46:56;2.71;87.42
40059;SHT31;25763;49.972;8.568;2024-03-06T04:49:42;2.77;87.21
40059;SHT31;25763;49.972;8.568;2024-03-06T04:52:28;2.91;87.01
40059;SHT31;25763;49.972;8.568;2024-03-06T04:55:13;2.99;86.78
40059;SHT31;25763;49.972;8.568;2024-03-06T04:58:00;2.99;86.56
40059;SHT31;25763;49.972;8.568;2024-03-06T05:00:46;3.07;86.39
40059;SHT31;25763;49.972;8.568;2024-03-06T05:03:31;3.15;86.21
40059;SHT31;25763;49.972;8.568;2024-03-06T05:06:17;3.16;86.02
40059;SHT31;25763;49.972;8.568;2024-03-06T05:09:02;3.23;85.76
40059;SHT31;25763;49.972;8.568;2024-03-06T05:11:48;3.20;85.45
40059;SHT31;25763;49.972;8.568;2024-03-06T05:14:36;3.13;85.06
40059;SHT31;25763;49.972;8.568;2024-03-06T05:17:22;3.13;84.89
40059;SHT31;25763;49.972;8.568;2024-03-06T05:20:08;3.09;84.82
40059;SHT31;25763;49.972;8.568;2024-03-06T05:22:54;3.06;84.69
40059;SHT31;25763;49.972;8.568;2024-03-06T05:25:40;3.06;84.66
40059;SHT31;25763;49.972;8.568;2024-03-06T05:28:26;2.89;84.60
40059;SHT31;25763;49.972;8.568;2024-03-06T05:31:19;2.58;84.78
40059;SHT31;25763;49.972;8.568;2024-03-06T05:34:05;2.50;85.13
40059;SHT31;25763;49.972;8.568;2024-03-06T05:36:50;2.54;85.55
40059;SHT31;25763;49.972;8.568;2024-03-06T05:39:36;2.65;85.43
40059;SHT31;25763;49.972;8.568;2024-03-06T05:42:22;2.77;85.41
40059;SHT31;25763;49.972;8.568;2024-03-06T05:45:08;2.85;85.35
40059;SHT31;25763;49.972;8.568;2024-03-06T05:47:57;2.95;85.32
40059;SHT31;25763;49.972;8.568;2024-03-06T05:50:43;3.07;85.31
40059;SHT31;25763;49.972;8.568;2024-03-06T05:53:30;3.15;85.24
40059;SHT31;25763;49.972;8.568;2024-03-06T05:56:17;3.20;85.22
40059;SHT31;25763;49.972;8.568;2024-03-06T05:59:03;3.30;85.18
40059;SHT31;25763;49.972;8.568;2024-03-06T06:01:50;3.33;84.98
40059;SHT31;25763;49.972;8.568;2024-03-06T06:04:35;3.40;84.98
40059;SHT31;25763;49.972;8.568;2024-03-06T06:07:21;3.40;84.90
40059;SHT31;25763;49.972;8.568;2024-03-06T06:10:07;3.47;84.84
40059;SHT31;25763;49.972;8.568;2024-03-06T06:12:55;3.51;84.73
40059;SHT31;25763;49.972;8.568;2024-03-06T06:15:41;3.54;84.54
40059;SHT31;25763;49.972;8.568;2024-03-06T06:18:26;3.61;84.48
40059;SHT31;25763;49.972;8.568;2024-03-06T06:21:12;3.66;84.33
40059;SHT31;25763;49.972;8.568;2024-03-06T06:23:58;3.68;84.21
40059;SHT31;25763;49.972;8.568;2024-03-06T06:26:43;3.54;83.97
40059;SHT31;25763;49.972;8.568;2024-03-06T06:29:29;3.51;83.91
40059;SHT31;25763;49.972;8.568;2024-03-06T06:32:15;3.48;84.10
40059;SHT31;25763;49.972;8.568;2024-03-06T06:35:00;3.68;83.93
40059;SHT31;25763;49.972;8.568;2024-03-06T06:37:46;3.68;83.86
40059;SHT31;25763;49.972;8.568;2024-03-06T06:40:31;3.71;83.68
40059;SHT31;25763;49.972;8.568;2024-03-06T06:43:17;3.79;83.58
40059;SHT31;25763;49.972;8.568;2024-03-06T06:46:03;3.90;83.64
40059;SHT31;25763;49.972;8.568;2024-03-06T06:48:51;3.96;83.59
40059;SHT31;25763;49.972;8.568;2024-03-06T06:51:36;4.06;83.74
40059;SHT31;25763;49.972;8.568;2024-03-06T06:54:22;4.09;83.76
40059;SHT31;25763;49.972;8.568;2024-03-06T06:57:08;4.09;83.73
40059;SHT31;25763;49.972;8.568;2024-03-06T06:59:53;4.14;83.68
40059;SHT31;25763;49.972;8.568;2024-03-06T07:02:39;4.29;83.77
40059;SHT31;25763;49.972;8.568;2024-03-06T07:05:26;4.36;83.74
40059;SHT31;25763;49.972;8.568;2024-03-06T07:08:11;4.44;83.65
40059;SHT31;25763;49.972;8.568;2024-03-06T07:10:57;4.45;83.68
40059;SHT31;25763;49.972;8.568;2024-03-06T07:13:43;4.55;83.76
40059;SHT31;25763;49.972;8.568;2024-03-06T07:16:28;4.65;83.69
40059;SHT31;25763;49.972;8.568;2024-03-06T07:19:14;4.72;83.66
40059;SHT31;25763;49.972;8.568;2024-03-06T07:21:59;4.68;84.01
40059;SHT31;25763;49.972;8.568;2024-03-06T07:24:45;4.86;83.95
40059;SHT31;25763;49.972;8.568;2024-03-06T07:27:31;4.81;84.12
40059;SHT31;25763;49.972;8.568;2024-03-06T07:30:17;4.73;84.58
40059;SHT31;25763;49.972;8.568;2024-03-06T07:33:02;4.68;84.84
40059;SHT31;25763;49.972;8.568;2024-03-06T07:35:48;4.55;85.22
40059;SHT31;25763;49.972;8.568;2024-03-06T07:38:34;4.72;85.75
40059;SHT31;25763;49.972;8.568;2024-03-06T07:41:19;4.76;85.53
40059;SHT31;25763;49.972;8.568;2024-03-06T07:44:05;5.07;85.47
40059;SHT31;25763;49.972;8.568;2024-03-06T07:46:51;5.22;85.18
40059;SHT31;25763;49.972;8.568;2024-03-06T07:49:38;5.28;85.02
40059;SHT31;25763;49.972;8.568;2024-03-06T07:52:24;5.44;84.73
40059;SHT31;25763;49.972;8.568;2024-03-06T07:55:10;5.53;84.77
40059;SHT31;25763;49.972;8.568;2024-03-06T07:57:55;5.70;84.65
40059;SHT31;25763;49.972;8.568;2024-03-06T08:00:41;5.89;84.33
40059;SHT31;25763;49.972;8.568;2024-03-06T08:03:26;6.19;84.18
40059;SHT31;25763;49.972;8.568;2024-03-06T08:06:12;6.37;83.67
40059;SHT31;25763;49.972;8.568;2024-03-06T08:09:00;6.30;82.64
40059;SHT31;25763;49.972;8.568;2024-03-06T08:11:47;6.57;82.76
40059;SHT31;25763;49.972;8.568;2024-03-06T08:14:33;6.75;82.80
40059;SHT31;25763;49.972;8.568;2024-03-06T08:17:18;6.72;82.06
40059;SHT31;25763;49.972;8.568;2024-03-06T08:20:05;6.52;82.59
40059;SHT31;25763;49.972;8.568;2024-03-06T08:22:53;6.48;83.85
40059;SHT31;25763;49.972;8.568;2024-03-06T08:25:38;6.38;84.32
40059;SHT31;25763;49.972;8.568;2024-03-06T08:28:24;6.45;84.32
40059;SHT31;25763;49.972;8.568;2024-03-06T08:31:10;6.47;84.50
40059;SHT31;25763;49.972;8.568;2024-03-06T08:33:56;6.76;84.37
40059;SHT31;25763;49.972;8.568;2024-03-06T08:36:41;7.06;84.13
40059;SHT31;25763;49.972;8.568;2024-03-06T08:39:27;7.10;83.40
40059;SHT31;25763;49.972;8.568;2024-03-06T08:42:13;7.16;82.91
40059;SHT31;25763;49.972;8.568;2024-03-06T08:44:59;7.10;82.95
40059;SHT31;25763;49.972;8.568;2024-03-06T08:47:46;7.36;82.86
40059;SHT31;25763;49.972;8.568;2024-03-06T08:50:32;7.42;82.57
40059;SHT31;25763;49.972;8.568;2024-03-06T08:53:18;7.28;82.70
40059;SHT31;25763;49.972;8.568;2024-03-06T08:56:04;7.23;83.04
40059;SHT31;25763;49.972;8.568;2024-03-06T08:58:50;7.45;83.36
40059;SHT31;25763;49.972;8.568;2024-03-06T09:01:36;7.67;83.06
40059;SHT31;25763;49.972;8.568;2024-03-06T09:04:22;8.01;82.84
40059;SHT31;25763;49.972;8.568;2024-03-06T09:07:07;8.36;82.62
40059;SHT31;25763;49.972;8.568;2024-03-06T09:09:53;8.46;81.24
40059;SHT31;25763;49.972;8.568;2024-03-06T09:12:39;8.81;81.11
40059;SHT31;25763;49.972;8.568;2024-03-06T09:15:25;8.91;80.23
40059;SHT31;25763;49.972;8.568;2024-03-06T09:18:11;9.08;80.05
40059;SHT31;25763;49.972;8.568;2024-03-06T09:20:56;9.16;79.74
40059;SHT31;25763;49.972;8.568;2024-03-06T09:23:42;9.54;79.86
40059;SHT31;25763;49.972;8.568;2024-03-06T09:26:28;9.46;79.10
40059;SHT31;25763;49.972;8.568;2024-03-06T09:29:13;9.43;78.46
40059;SHT31;25763;49.972;8.568;2024-03-06T09:31:59;9.65;79.00
40059;SHT31;25763;49.972;8.568;2024-03-06T09:34:44;9.98;79.17
40059;SHT31;25763;49.972;8.568;2024-03-06T09:37:30;10.16;78.05
40059;SHT31;25763;49.972;8.568;2024-03-06T09:40:21;10.17;77.65
40059;SHT31;25763;49.972;8.568;2024-03-06T09:43:07;10.51;77.97
40059;SHT31;25763;49.972;8.568;2024-03-06T09:45:53;10.20;76.95
40059;SHT31;25763;49.972;8.568;2024-03-06T09:48:46;10.41;76.92
40059;SHT31;25763;49.972;8.568;2024-03-06T09:51:32;10.20;77.04
40059;SHT31;25763;49.972;8.568;2024-03-06T09:54:19;10.44;76.97
40059;SHT31;25763;49.972;8.568;2024-03-06T09:57:05;10.20;75.58
40059;SHT31;25763;49.972;8.568;2024-03-06T09:59:51;10.26;75.80
40059;SHT31;25763;49.972;8.568;2024-03-06T10:02:53;10.00;76.38
40059;SHT31;25763;49.972;8.568;2024-03-06T10:05:40;10.38;76.71
40059;SHT31;25763;49.972;8.568;2024-03-06T10:08:26;10.59;75.73
40059;SHT31;25763;49.972;8.568;2024-03-06T10:11:13;10.35;75.37
40059;SHT31;25763;49.972;8.568;2024-03-06T10:13:59;10.37;74.91
40059;SHT31;25763;49.972;8.568;2024-03-06T10:16:54;10.55;75.50
40059;SHT31;25763;49.972;8.568;2024-03-06T10:19:41;10.33;74.90
40059;SHT31;25763;49.972;8.568;2024-03-06T10:22:31;10.48;74.79
40059;SHT31;25763;49.972;8.568;2024-03-06T10:25:19;10.73;73.87
40059;SHT31;25763;49.972;8.568;2024-03-06T10:31:03;11.27;72.19
40059;SHT31;25763;49.972;8.568;2024-03-06T10:33:49;11.52;72.68
40059;SHT31;25763;49.972;8.568;2024-03-06T10:36:35;11.77;71.88
40059;SHT31;25763;49.972;8.568;2024-03-06T10:39:23;12.08;71.07
40059;SHT31;25763;49.972;8.568;2024-03-06T10:42:12;11.93;67.70
40059;SHT31;25763;49.972;8.568;2024-03-06T10:44:59;11.71;68.04
40059;SHT31;25763;49.972;8.568;2024-03-06T10:47:46;11.38;68.79
40059;SHT31;25763;49.972;8.568;2024-03-06T10:50:33;11.29;69.78
40059;SHT31;25763;49.972;8.568;2024-03-06T10:53:19;11.87;70.73
40059;SHT31;25763;49.972;8.568;2024-03-06T10:56:05;11.45;69.38
40059;SHT31;25763;49.972;8.568;2024-03-06T10:58:56;11.45;69.16
40059;SHT31;25763;49.972;8.568;2024-03-06T11:01:44;11.45;68.91
40059;SHT31;25763;49.972;8.568;2024-03-06T11:04:31;11.14;69.38
40059;SHT31;25763;49.972;8.568;2024-03-06T11:07:20;11.28;69.75
40059;SHT31;25763;49.972;8.568;2024-03-06T11:10:06;11.38;70.24
40059;SHT31;25763;49.972;8.568;2024-03-06T11:12:53;11.49;69.57
40059;SHT31;25763;49.972;8.568;2024-03-06T11:15:38;11.71;68.85
40059;SHT31;25763;49.972;8.568;2024-03-06T11:24:31;11.12;68.08
40059;SHT31;25763;49.972;8.568;2024-03-06T11:27:17;11.38;68.21
40059;SHT31;25763;49.972;8.568;2024-03-06T11:30:08;11.61;67.59
40059;SHT31;25763;49.972;8.568;2024-03-06T11:33:00;11.83;67.57
40059;SHT31;25763;49.972;8.568;2024-03-06T11:39:07;11.91;65.47
40059;SHT31;25763;49.972;8.568;2024-03-06T11:41:53;12.02;67.16
40059;SHT31;25763;49.972;8.568;2024-03-06T11:44:52;11.98;65.75
40059;SHT31;25763;49.972;8.568;2024-03-06T11:47:58;11.79;66.51
40059;SHT31;25763;49.972;8.568;2024-03-06T11:50:44;11.59;65.85
40059;SHT31;25763;49.972;8.568;2024-03-06T11:53:32;11.58;66.08
40059;SHT31;25763;49.972;8.568;2024-03-06T11:56:19;12.75;66.87
40059;SHT31;25763;49.972;8.568;2024-03-06T11:59:05;13.39;64.57
40059;SHT31;25763;49.972;8.568;2024-03-06T12:01:53;12.49;62.72
40059;SHT31;25763;49.972;8.568;2024-03-06T12:04:40;12.74;63.94
40059;SHT31;25763;49.972;8.568;2024-03-06T12:07:26;12.95;63.15
40059;SHT31;25763;49.972;8.568;2024-03-06T12:10:13;12.84;63.23
40059;SHT31;25763;49.972;8.568;2024-03-06T12:12:58;12.57;63.45
40059;SHT31;25763;49.972;8.568;2024-03-06T12:15:44;12.20;65.28
40059;SHT31;25763;49.972;8.568;2024-03-06T12:18:31;11.94;64.68
40059;SHT31;25763;49.972;8.568;2024-03-06T12:21:16;12.15;65.62
40059;SHT31;25763;49.972;8.568;2024-03-06T12:24:06;12.61;65.90
40059;SHT31;25763;49.972;8.568;2024-03-06T12:27:03;12.92;64.78
40059;SHT31;25763;49.972;8.568;2024-03-06T12:29:52;12.88;64.36
40059;SHT31;25763;49.972;8.568;2024-03-06T12:32:38;12.85;62.64
40059;SHT31;25763;49.972;8.568;2024-03-06T12:35:25;12.29;62.58
40059;SHT31;25763;49.972;8.568;2024-03-06T12:38:15;12.04;63.20
40059;SHT31;25763;49.972;8.568;2024-03-06T12:41:01;12.06;63.71
40059;SHT31;25763;49.972;8.568;2024-03-06T12:43:47;12.32;63.43
40059;SHT31;25763;49.972;8.568;2024-03-06T12:46:32;12.52;63.11
40059;SHT31;25763;49.972;8.568;2024-03-06T12:49:18;12.30;62.62
40059;SHT31;25763;49.972;8.568;2024-03-06T12:52:04;12.42;62.70
40059;SHT31;25763;49.972;8.568;2024-03-06T12:54:50;12.08;62.82
40059;SHT31;25763;49.972;8.568;2024-03-06T12:57:36;11.98;64.13
40059;SHT31;25763;49.972;8.568;2024-03-06T13:00:21;12.08;63.96
40059;SHT31;25763;49.972;8.568;2024-03-06T13:03:07;11.91;64.10
40059;SHT31;25763;49.972;8.568;2024-03-06T13:05:53;12.01;63.19
40059;SHT31;25763;49.972;8.568;2024-03-06T13:08:39;12.42;63.43
40059;SHT31;25763;49.972;8.568;2024-03-06T13:11:25;12.39;63.06
40059;SHT31;25763;49.972;8.568;2024-03-06T13:14:10;12.47;62.47
40059;SHT31;25763;49.972;8.568;2024-03-06T13:16:57;12.30;63.23
40059;SHT31;25763;49.972;8.568;2024-03-06T13:19:42;12.60;63.10
40059;SHT31;25763;49.972;8.568;2024-03-06T13:22:28;12.09;65.28
40059;SHT31;25763;49.972;8.568;2024-03-06T13:25:14;11.94;65.75
40059;SHT31;25763;49.972;8.568;2024-03-06T13:27:59;11.95;65.20
40059;SHT31;25763;49.972;8.568;2024-03-06T13:30:45;12.05;65.60
40059;SHT31;25763;49.972;8.568;2024-03-06T13:33:30;11.93;65.47
40059;SHT31;25763;49.972;8.568;2024-03-06T13:36:16;11.86;66.25
40059;SHT31;25763;49.972;8.568;2024-03-06T13:39:02;12.09;66.18
40059;SHT31;25763;49.972;8.568;2024-03-06T13:41:47;12.14;65.25
40059;SHT31;25763;49.972;8.568;2024-03-06T13:44:34;11.79;65.79
40059;SHT31;25763;49.972;8.568;2024-03-06T13:47:20;11.99;66.48
40059;SHT31;25763;49.972;8.568;2024-03-06T13:50:07;12.28;66.14
40059;SHT31;25763;49.972;8.568;2024-03-06T13:52:53;12.28;64.53
40059;SHT31;25763;49.972;8.568;2024-03-06T13:55:39;12.12;64.72
40059;SHT31;25763;49.972;8.568;2024-03-06T13:58:25;11.87;65.47
40059;SHT31;25763;49.972;8.568;2024-03-06T14:01:11;11.86;65.91
40059;SHT31;25763;49.972;8.568;2024-03-06T14:03:57;11.65;65.99
40059;SHT31;25763;49.972;8.568;2024-03-06T14:06:43;11.58;66.02
40059;SHT31;25763;49.972;8.568;2024-03-06T14:09:29;11.58;66.48
40059;SHT31;25763;49.972;8.568;2024-03-06T14:12:16;11.51;66.74
40059;SHT31;25763;49.972;8.568;2024-03-06T14:15:02;11.74;66.41
40059;SHT31;25763;49.972;8.568;2024-03-06T14:17:49;11.74;66.06
40059;SHT31;25763;49.972;8.568;2024-03-06T14:20:35;11.76;66.10
40059;SHT31;25763;49.972;8.568;2024-03-06T14:23:20;11.95;65.27
40059;SHT31;25763;49.972;8.568;2024-03-06T14:26:06;12.04;64.92
40059;SHT31;25763;49.972;8.568;2024-03-06T14:28:51;12.49;65.76
40059;SHT31;25763;49.972;8.568;2024-03-06T14:31:37;12.05;64.34
40059;SHT31;25763;49.972;8.568;2024-03-06T14:34:23;12.25;65.22
40059;SHT31;25763;49.972;8.568;2024-03-06T14:37:09;12.36;65.07
40059;SHT31;25763;49.972;8.568;2024-03-06T14:39:55;12.59;64.63
40059;SHT31;25763;49.972;8.568;2024-03-06T14:42:41;12.11;64.70
40059;SHT31;25763;49.972;8.568;2024-03-06T14:45:27;11.99;65.13
40059;SHT31;25763;49.972;8.568;2024-03-06T14:48:12;12.08;65.37
40059;SHT31;25763;49.972;8.568;2024-03-06T14:50:58;12.24;65.50
40059;SHT31;25763;49.972;8.568;2024-03-06T14:53:44;12.24;64.24
40059;SHT31;25763;49.972;8.568;2024-03-06T14:56:29;12.38;64.92
40059;SHT31;25763;49.972;8.568;2024-03-06T14:59:16;12.42;64.74
40059;SHT31;25763;49.972;8.568;2024-03-06T15:02:01;12.39;64.73
40059;SHT31;25763;49.972;8.568;2024-03-06T15:04:49;12.42;65.05
40059;SHT31;25763;49.972;8.568;2024-03-06T15:07:34;12.11;64.57
40059;SHT31;25763;49.972;8.568;2024-03-06T15:10:20;12.25;65.48
40059;SHT31;25763;49.972;8.568;2024-03-06T15:13:05;12.11;64.62
40059;SHT31;25763;49.972;8.568;2024-03-06T15:15:51;11.97;65.68
40059;SHT31;25763;49.972;8.568;2024-03-06T15:18:37;11.88;64.86
40059;SHT31;25763;49.972;8.568;2024-03-06T15:21:23;11.81;65.27
40059;SHT31;25763;49.972;8.568;2024-03-06T15:24:09;11.88;65.87
40059;SHT31;25763;49.972;8.568;2024-03-06T15:26:54;11.88;65.22
40059;SHT31;25763;49.972;8.568;2024-03-06T15:29:40;11.45;65.47
40059;SHT31;25763;49.972;8.568;2024-03-06T15:32:26;11.25;66.43
40059;SHT31;25763;49.972;8.568;2024-03-06T15:35:12;11.11;66.95
40059;SHT31;25763;49.972;8.568;2024-03-06T15:37:57;11.20;67.00
40059;SHT31;25763;49.972;8.568;2024-03-06T15:40:43;11.35;67.17
40059;SHT31;25763;49.972;8.568;2024-03-06T15:43:28;11.36;66.80
40059;SHT31;25763;49.972;8.568;2024-03-06T15:46:14;11.39;66.95
40059;SHT31;25763;49.972;8.568;2024-03-06T15:49:06;11.31;66.58
40059;SHT31;25763;49.972;8.568;2024-03-06T15:51:53;11.38;67.21
40059;SHT31;25763;49.972;8.568;2024-03-06T15:54:39;11.31;67.39
40059;SHT31;25763;49.972;8.568;2024-03-06T15:57:24;11.12;67.31
40059;SHT31;25763;49.972;8.568;2024-03-06T16:00:10;11.03;68.04
40059;SHT31;25763;49.972;8.568;2024-03-06T16:03:00;11.10;68.04
40059;SHT31;25763;49.972;8.568;2024-03-06T16:05:46;11.12;68.27
40059;SHT31;25763;49.972;8.568;2024-03-06T16:08:32;11.06;68.40
40059;SHT31;25763;49.972;8.568;2024-03-06T16:11:18;11.08;68.55
40059;SHT31;25763;49.972;8.568;2024-03-06T16:14:04;11.01;68.39
40059;SHT31;25763;49.972;8.568;2024-03-06T16:16:49;10.99;68.15
40059;SHT31;25763;49.972;8.568;2024-03-06T16:19:35;10.93;68.40
40059;SHT31;25763;49.972;8.568;2024-03-06T16:22:21;10.93;68.29
40059;SHT31;25763;49.972;8.568;2024-03-06T16:25:07;10.94;68.30
40059;SHT31;25763;49.972;8.568;2024-03-06T16:27:53;10.82;68.76
40059;SHT31;25763;49.972;8.568;2024-03-06T16:30:39;10.89;68.84
40059;SHT31;25763;49.972;8.568;2024-03-06T16:33:24;10.85;68.91
40059;SHT31;25763;49.972;8.568;2024-03-06T16:36:10;10.83;69.03
40059;SHT31;25763;49.972;8.568;2024-03-06T16:38:55;10.82;68.93
40059;SHT31;25763;49.972;8.568;2024-03-06T16:41:41;10.76;69.13
40059;SHT31;25763;49.972;8.568;2024-03-06T16:44:29;10.76;68.87
40059;SHT31;25763;49.972;8.568;2024-03-06T16:47:15;10.76;69.14
40059;SHT31;25763;49.972;8.568;2024-03-06T16:50:01;10.76;69.27
40059;SHT31;25763;49.972;8.568;2024-03-06T16:52:46;10.71;69.48
40059;SHT31;25763;49.972;8.568;2024-03-06T16:55:33;10.68;69.46
40059;SHT31;25763;49.972;8.568;2024-03-06T16:58:18;10.61;69.21
40059;SHT31;25763;49.972;8.568;2024-03-06T17:01:06;10.54;69.35
40059;SHT31;25763;49.972;8.568;2024-03-06T17:03:52;10.55;69.50
40059;SHT31;25763;49.972;8.568;2024-03-06T17:06:37;10.51;70.05
40059;SHT31;25763;49.972;8.568;2024-03-06T17:09:23;10.48;70.42
40059;SHT31;25763;49.972;8.568;2024-03-06T17:12:08;10.44;70.72
40059;SHT31;25763;49.972;8.568;2024-03-06T17:14:54;10.41;71.04
40059;SHT31;25763;49.972;8.568;2024-03-06T17:17:40;10.35;71.26
40059;SHT31;25763;49.972;8.568;2024-03-06T17:20:25;10.34;71.36
40059;SHT31;25763;49.972;8.568;2024-03-06T17:23:11;10.28;71.64
40059;SHT31;25763;49.972;8.568;2024-03-06T17:25:57;10.24;71.74
40059;SHT31;25763;49.972;8.568;2024-03-06T17:28:43;10.16;72.18
40059;SHT31;25763;49.972;8.568;2024-03-06T17:31:29;10.08;72.53
40059;SHT31;25763;49.972;8.568;2024-03-06T17:34:15;10.00;72.65
40059;SHT31;25763;49.972;8.568;2024-03-06T17:37:01;9.98;72.94
40059;SHT31;25763;49.972;8.568;2024-03-06T17:39:50;9.86;73.16
40059;SHT31;25763;49.972;8.568;2024-03-06T17:42:37;9.85;73.38
40059;SHT31;25763;49.972;8.568;2024-03-06T17:45:23;9.83;73.40
40059;SHT31;25763;49.972;8.568;2024-03-06T17:48:11;9.78;73.65
40059;SHT31;25763;49.972;8.568;2024-03-06T17:50:57;9.72;73.86
40059;SHT31;25763;49.972;8.568;2024-03-06T17:53:43;9.68;73.96